createdAt,value
2023-03-27T00:00:10.704Z,3.50
2023-03-27T00:03:14.316Z,3.83
2023-03-27T00:09:20.081Z,3.67
2023-03-27T00:12:21.782Z,3.17
2023-03-27T00:15:23.598Z,3.72
2023-03-27T00:18:25.798Z,4.07
2023-03-27T00:21:29.434Z,3.60
2023-03-27T00:24:31.275Z,3.58
2023-03-27T00:27:33.045Z,3.90
2023-03-27T00:30:35.178Z,3.80
2023-03-27T00:33:36.955Z,3.70
2023-03-27T00:36:40.022Z,3.53
2023-03-27T00:39:41.721Z,4.05
2023-03-27T00:42:44.102Z,4.35
2023-03-27T00:45:46.923Z,4.70
2023-03-27T00:48:52.636Z,4.40
2023-03-27T00:51:56.491Z,4.32
2023-03-27T00:55:03.226Z,5.70
2023-03-27T00:58:08.940Z,5.90
2023-03-27T01:01:14.149Z,5.90
2023-03-27T01:04:16.649Z,6.72
2023-03-27T01:07:20.188Z,6.18
2023-03-27T01:10:25.650Z,5.18
2023-03-27T01:13:47.617Z,5.03
2023-03-27T01:20:33.625Z,5.75
2023-03-27T01:24:01.736Z,4.57
2023-03-27T01:27:08.661Z,4.72
2023-03-27T01:30:18.533Z,5.15
2023-03-27T01:33:58.378Z,4.60
2023-03-27T01:37:24.158Z,4.10
2023-03-27T01:40:32.290Z,4.65
2023-03-27T01:43:40.200Z,4.85
2023-03-27T01:46:48.841Z,5.15
2023-03-27T01:49:54.387Z,5.00
2023-03-27T01:53:01.624Z,5.28
2023-03-27T01:56:07.886Z,5.38
2023-03-27T01:59:14.291Z,4.38
2023-03-27T02:02:21.596Z,5.00
2023-03-27T02:05:30.057Z,5.80
2023-03-27T02:08:37.466Z,5.68
2023-03-27T02:11:43.978Z,4.20
2023-03-27T02:14:51.182Z,4.60
2023-03-27T02:17:57.947Z,3.47
2023-03-27T02:20:59.881Z,3.58
2023-03-27T02:24:02.022Z,3.15
2023-03-27T02:27:13.017Z,3.47
2023-03-27T02:30:23.219Z,3.35
2023-03-27T02:33:34.961Z,3.63
2023-03-27T02:36:43.339Z,3.83
2023-03-27T02:39:54.675Z,3.95
2023-03-27T02:43:06.870Z,4.15
2023-03-27T02:46:16.126Z,4.00
2023-03-27T02:49:21.779Z,4.68
2023-03-27T02:52:30.985Z,5.35
2023-03-27T02:55:37.389Z,6.43
2023-03-27T02:58:45.010Z,5.53
2023-03-27T03:01:46.869Z,5.95
2023-03-27T03:04:54.678Z,5.38
2023-03-27T03:07:56.368Z,4.43
2023-03-27T03:11:03.363Z,4.65
2023-03-27T03:14:06.488Z,4.82
2023-03-27T03:17:08.208Z,4.88
2023-03-27T03:20:10.992Z,4.93
2023-03-27T03:23:12.994Z,5.30
2023-03-27T03:26:15.175Z,5.05
2023-03-27T03:29:18.952Z,5.25
2023-03-27T03:35:22.596Z,4.45
2023-03-27T03:38:24.778Z,4.28
2023-03-27T03:41:26.551Z,3.85
2023-03-27T03:44:30.285Z,3.53
2023-03-27T03:47:31.996Z,3.45
2023-03-27T03:50:33.721Z,3.72
2023-03-27T03:53:35.518Z,3.30
2023-03-27T03:56:38.173Z,2.65
2023-03-27T03:59:41.285Z,2.95
2023-03-27T04:02:43.150Z,2.90
2023-03-27T04:05:44.920Z,2.90
2023-03-27T04:08:46.728Z,2.65
2023-03-27T04:11:48.546Z,3.20
2023-03-27T04:14:51.678Z,2.58
2023-03-27T04:17:53.550Z,3.10
2023-03-27T04:20:55.590Z,3.00
2023-03-27T04:23:57.590Z,2.80
2023-03-27T04:26:59.921Z,3.15
2023-03-27T04:30:03.347Z,3.58
2023-03-27T04:33:06.278Z,3.30
2023-03-27T04:36:09.177Z,3.13
2023-03-27T04:39:10.922Z,3.00
2023-03-27T04:42:13.251Z,2.75
2023-03-27T04:45:18.857Z,3.00
2023-03-27T04:48:20.949Z,2.75
2023-03-27T04:51:22.927Z,2.78
2023-03-27T04:54:24.624Z,2.85
2023-03-27T04:57:26.593Z,3.38
2023-03-27T05:00:29.688Z,3.25
2023-03-27T05:03:31.405Z,4.13
2023-03-27T05:06:33.233Z,5.07
2023-03-27T05:09:35.111Z,5.22
2023-03-27T05:12:36.993Z,5.57
2023-03-27T05:15:40.057Z,5.68
2023-03-27T05:18:42.114Z,5.57
2023-03-27T05:21:43.901Z,5.07
2023-03-27T05:24:45.856Z,4.65
2023-03-27T05:27:48.298Z,5.28
2023-03-27T05:30:52.376Z,5.40
2023-03-27T05:33:54.602Z,4.80
2023-03-27T05:36:56.353Z,5.43
2023-03-27T05:39:58.331Z,5.32
2023-03-27T05:43:00.727Z,5.28
2023-03-27T05:46:04.630Z,5.60
2023-03-27T05:49:06.336Z,4.82
2023-03-27T05:52:08.023Z,5.03
2023-03-27T05:55:10.507Z,5.15
2023-03-27T05:58:12.686Z,5.35
2023-03-27T06:01:15.756Z,5.25
2023-03-27T06:04:17.819Z,5.45
2023-03-27T06:07:19.610Z,5.30
2023-03-27T06:10:21.633Z,6.07
2023-03-27T06:13:23.582Z,5.72
2023-03-27T06:16:26.835Z,5.97
2023-03-27T06:19:28.799Z,5.80
2023-03-27T06:22:30.517Z,5.93
2023-03-27T06:25:33.506Z,4.95
2023-03-27T06:28:35.497Z,4.55
2023-03-27T06:31:38.622Z,5.13
2023-03-27T06:34:40.656Z,3.83
2023-03-27T06:37:43.853Z,4.60
2023-03-27T06:40:46.822Z,4.70
2023-03-27T06:43:48.512Z,4.38
2023-03-27T06:46:51.593Z,5.18
2023-03-27T06:49:53.343Z,4.85
2023-03-27T06:52:55.230Z,4.68
2023-03-27T06:55:57.960Z,3.47
2023-03-27T06:58:59.838Z,2.92
2023-03-27T07:02:02.984Z,3.78
2023-03-27T07:05:05.680Z,3.13
2023-03-27T07:08:21.720Z,3.67
2023-03-27T07:11:25.823Z,3.05
2023-03-27T07:14:27.686Z,3.40
2023-03-27T07:17:45.565Z,3.38
2023-03-27T07:20:50.235Z,2.72
2023-03-27T07:23:52.102Z,3.40
2023-03-27T07:26:53.766Z,4.90
2023-03-27T07:29:55.667Z,3.80
2023-03-27T07:32:58.955Z,3.20
2023-03-27T07:36:05.835Z,4.93
2023-03-27T07:39:07.860Z,3.33
2023-03-27T07:42:09.618Z,3.30
2023-03-27T07:45:12.169Z,2.42
2023-03-27T07:48:15.386Z,3.25
2023-03-27T07:51:17.869Z,3.20
2023-03-27T07:54:19.703Z,4.47
2023-03-27T07:57:21.566Z,10.93
2023-03-27T08:00:23.531Z,3.80
2023-03-27T08:03:26.780Z,13.55
2023-03-27T08:06:28.798Z,6.60
2023-03-27T08:09:30.493Z,3.95
2023-03-27T08:12:32.380Z,2.95
2023-03-27T08:15:34.410Z,2.38
2023-03-27T08:18:37.881Z,2.90
2023-03-27T08:21:39.687Z,2.65
2023-03-27T08:24:41.478Z,2.78
2023-03-27T08:27:43.867Z,2.90
2023-03-27T08:30:45.697Z,2.63
2023-03-27T08:33:48.755Z,3.00
2023-03-27T08:36:50.478Z,2.88
2023-03-27T08:39:52.202Z,2.25
2023-03-27T08:42:58.628Z,2.47
2023-03-27T08:46:05.433Z,2.97
2023-03-27T08:49:13.705Z,3.75
2023-03-27T08:52:18.729Z,4.80
2023-03-27T08:55:28.353Z,6.95
2023-03-27T08:58:30.044Z,5.72
2023-03-27T09:01:37.748Z,3.67
2023-03-27T09:04:48.908Z,4.53
2023-03-27T09:07:56.307Z,3.40
2023-03-27T09:11:05.784Z,3.55
2023-03-27T09:14:18.923Z,2.90
2023-03-27T09:17:27.593Z,2.90
2023-03-27T09:20:35.058Z,2.55
2023-03-27T09:23:41.929Z,3.38
2023-03-27T09:26:43.617Z,3.75
2023-03-27T09:29:49.090Z,3.70
2023-03-27T09:32:55.558Z,4.50
2023-03-27T09:35:58.949Z,4.10
2023-03-27T09:39:04.639Z,3.72
2023-03-27T09:42:11.735Z,3.85
2023-03-27T09:45:13.496Z,4.28
2023-03-27T09:48:24.712Z,3.63
2023-03-27T09:51:39.531Z,2.85
2023-03-27T09:54:51.883Z,2.60
2023-03-27T09:57:58.548Z,3.60
2023-03-27T10:01:12.522Z,3.08
2023-03-27T10:04:17.329Z,3.47
2023-03-27T10:07:25.727Z,2.42
2023-03-27T10:10:28.743Z,3.42
2023-03-27T10:13:30.561Z,3.05
2023-03-27T10:16:39.696Z,4.32
2023-03-27T10:19:42.193Z,4.82
2023-03-27T10:22:54.587Z,4.15
2023-03-27T10:25:59.763Z,3.03
2023-03-27T10:29:18.526Z,2.72
2023-03-27T10:32:43.722Z,3.05
2023-03-27T10:35:45.566Z,3.00
2023-03-27T10:38:54.903Z,3.28
2023-03-27T10:42:08.092Z,2.35
2023-03-27T10:45:16.051Z,2.80
2023-03-27T10:48:30.953Z,2.95
2023-03-27T10:51:46.204Z,2.88
2023-03-27T10:58:01.669Z,2.70
2023-03-27T11:01:09.807Z,2.03
2023-03-27T11:04:18.263Z,2.35
2023-03-27T11:07:25.676Z,2.75
2023-03-27T11:10:33.993Z,3.13
2023-03-27T11:13:41.608Z,2.70
2023-03-27T11:16:48.823Z,1.92
2023-03-27T11:19:54.262Z,2.40
2023-03-27T11:23:02.754Z,2.40
2023-03-27T11:26:07.425Z,2.20
2023-03-27T11:29:16.384Z,2.05
2023-03-27T11:32:26.772Z,1.70
2023-03-27T11:35:36.616Z,5.63
2023-03-27T11:38:44.091Z,1.85
2023-03-27T11:41:51.631Z,3.30
2023-03-27T11:44:54.035Z,1.88
2023-03-27T11:48:14.298Z,2.05
2023-03-27T11:51:24.869Z,2.03
2023-03-27T11:54:48.737Z,1.85
2023-03-27T11:58:09.630Z,1.90
2023-03-27T12:01:17.970Z,2.58
2023-03-27T12:04:35.283Z,2.30
2023-03-27T12:07:48.144Z,2.28
2023-03-27T12:10:52.652Z,2.47
2023-03-27T12:14:40.083Z,2.83
2023-03-27T12:17:53.535Z,2.55
2023-03-27T12:21:09.318Z,3.17
2023-03-27T12:24:26.624Z,2.70
2023-03-27T12:27:40.374Z,3.00
2023-03-27T12:30:54.662Z,2.85
2023-03-27T12:34:02.415Z,2.17
2023-03-27T12:37:05.838Z,2.90
2023-03-27T12:40:24.999Z,3.58
2023-03-27T12:43:29.005Z,4.35
2023-03-27T12:46:35.674Z,1.88
2023-03-27T12:49:47.750Z,2.70
2023-03-27T12:52:51.565Z,2.80
2023-03-27T12:56:22.086Z,2.33
2023-03-27T12:59:26.318Z,2.60
2023-03-27T13:02:53.319Z,2.38
2023-03-27T13:06:11.060Z,2.70
2023-03-27T13:09:25.836Z,2.42
2023-03-27T13:12:58.384Z,2.15
2023-03-27T13:16:21.241Z,2.40
2023-03-27T13:19:36.983Z,3.30
2023-03-27T13:22:53.135Z,3.40
2023-03-27T13:26:10.249Z,3.17
2023-03-27T13:29:16.675Z,2.25
2023-03-27T13:32:34.936Z,2.30
2023-03-27T13:35:51.330Z,2.58
2023-03-27T13:39:20.010Z,4.30
2023-03-27T13:42:24.587Z,4.65
2023-03-27T13:45:35.654Z,4.47
2023-03-27T13:49:15.322Z,4.00
2023-03-27T13:52:46.770Z,4.38
2023-03-27T13:55:57.186Z,4.15
2023-03-27T13:59:29.786Z,3.30
2023-03-27T14:03:03.660Z,3.45
2023-03-27T14:06:35.099Z,2.63
2023-03-27T14:09:51.023Z,2.30
2023-03-27T14:13:03.279Z,2.40
2023-03-27T14:16:44.937Z,2.45
2023-03-27T14:20:13.872Z,2.03
2023-03-27T14:23:19.568Z,1.50
2023-03-27T14:26:24.735Z,2.20
2023-03-27T14:29:26.780Z,1.95
2023-03-27T14:32:29.272Z,1.70
2023-03-27T14:35:35.540Z,2.10
2023-03-27T14:38:37.492Z,2.22
2023-03-27T14:41:46.709Z,2.20
2023-03-27T14:44:48.434Z,1.48
2023-03-27T14:47:53.598Z,1.63
2023-03-27T14:50:58.516Z,1.92
2023-03-27T14:54:05.017Z,2.35
2023-03-27T14:57:11.330Z,2.60
2023-03-27T15:00:17.425Z,2.75
2023-03-27T15:03:23.440Z,1.98
2023-03-27T15:06:25.602Z,4.47
2023-03-27T15:09:27.428Z,2.20
2023-03-27T15:12:30.773Z,2.95
2023-03-27T15:15:37.081Z,3.15
2023-03-27T15:18:49.802Z,3.85
2023-03-27T15:22:00.484Z,2.72
2023-03-27T15:25:06.155Z,2.47
2023-03-27T15:28:20.312Z,2.90
2023-03-27T15:31:22.507Z,2.95
2023-03-27T15:34:31.001Z,3.85
2023-03-27T15:37:32.963Z,3.30
2023-03-27T15:40:38.144Z,2.78
2023-03-27T15:43:43.947Z,2.42
2023-03-27T15:46:54.740Z,2.83
2023-03-27T15:50:16.859Z,2.95
2023-03-27T15:53:32.176Z,2.25
2023-03-27T15:56:39.952Z,2.22
2023-03-27T15:59:52.871Z,2.20
2023-03-27T16:02:56.164Z,2.22
2023-03-27T16:05:59.131Z,2.35
2023-03-27T16:09:01.747Z,2.55
2023-03-27T16:12:03.916Z,2.28
2023-03-27T16:15:28.053Z,3.72
2023-03-27T16:18:33.657Z,2.22
2023-03-27T16:21:35.400Z,2.72
2023-03-27T16:24:37.435Z,1.90
2023-03-27T16:27:43.937Z,2.10
2023-03-27T16:30:47.524Z,2.55
2023-03-27T16:33:50.024Z,2.40
2023-03-27T16:36:51.967Z,2.40
2023-03-27T16:39:54.715Z,2.45
2023-03-27T16:42:57.183Z,2.55
2023-03-27T16:46:02.037Z,2.45
2023-03-27T16:49:04.166Z,2.38
2023-03-27T16:52:06.666Z,2.38
2023-03-27T16:55:09.881Z,2.75
2023-03-27T16:58:12.144Z,1.95
2023-03-27T17:01:16.989Z,2.58
2023-03-27T17:04:20.229Z,2.20
2023-03-27T17:07:22.588Z,2.13
2023-03-27T17:10:25.608Z,2.20
2023-03-27T17:13:28.018Z,2.53
2023-03-27T17:16:32.156Z,1.65
2023-03-27T17:19:34.573Z,1.80
2023-03-27T17:22:36.812Z,2.22
2023-03-27T17:25:38.616Z,2.22
2023-03-27T17:28:40.360Z,2.35
2023-03-27T17:31:44.668Z,2.38
2023-03-27T17:34:47.374Z,2.15
2023-03-27T17:37:49.666Z,2.67
2023-03-27T17:40:53.440Z,2.40
2023-03-27T17:43:56.354Z,2.30
2023-03-27T17:47:00.553Z,2.20
2023-03-27T17:50:02.977Z,2.72
2023-03-27T17:53:08.018Z,1.90
2023-03-27T17:56:10.585Z,1.60
2023-03-27T17:59:13.323Z,2.10
2023-03-27T18:02:19.953Z,1.77
2023-03-27T18:05:22.283Z,2.35
2023-03-27T18:08:24.481Z,2.33
2023-03-27T18:11:26.628Z,2.15
2023-03-27T18:14:30.042Z,1.85
2023-03-27T18:17:33.941Z,2.17
2023-03-27T18:20:37.390Z,1.55
2023-03-27T18:23:45.674Z,1.88
2023-03-27T18:26:48.858Z,2.60
2023-03-27T18:29:52.681Z,1.80
2023-03-27T18:36:08.258Z,2.05
2023-03-27T18:39:11.905Z,1.65
2023-03-27T18:45:17.734Z,1.42
2023-03-27T18:48:21.694Z,2.35
2023-03-27T18:51:25.343Z,2.42
2023-03-27T18:54:28.258Z,1.88
2023-03-27T18:57:30.967Z,1.80
2023-03-27T19:00:33.648Z,2.22
2023-03-27T19:03:41.719Z,2.03
2023-03-27T19:06:44.336Z,2.15
2023-03-27T19:09:47.326Z,2.35
2023-03-27T19:12:51.177Z,2.30
2023-03-27T19:15:53.903Z,2.03
2023-03-27T19:18:58.526Z,1.92
2023-03-27T19:22:02.110Z,2.30
2023-03-27T19:25:05.538Z,1.67
2023-03-27T19:28:08.606Z,2.40
2023-03-27T19:31:13.112Z,2.00
2023-03-27T19:34:17.364Z,2.08
2023-03-27T19:40:23.422Z,1.73
2023-03-27T19:43:28.120Z,3.25
2023-03-27T19:46:32.598Z,2.40
2023-03-27T19:49:37.672Z,2.10
2023-03-27T19:52:40.800Z,2.22
2023-03-27T19:55:42.864Z,2.22
2023-03-27T19:58:45.456Z,2.17
2023-03-27T20:01:48.507Z,2.03
2023-03-27T20:04:52.998Z,1.98
2023-03-27T20:07:55.574Z,2.55
2023-03-27T20:10:59.282Z,2.22
2023-03-27T20:14:01.961Z,2.53
2023-03-27T20:17:07.939Z,2.33
2023-03-27T20:20:17.033Z,2.63
2023-03-27T20:23:19.174Z,1.92
2023-03-27T20:26:21.987Z,2.50
2023-03-27T20:29:25.191Z,2.20
2023-03-27T20:32:28.202Z,2.58
2023-03-27T20:35:33.373Z,2.28
2023-03-27T20:38:35.940Z,2.17
2023-03-27T20:41:38.553Z,2.53
2023-03-27T20:44:41.532Z,2.17
2023-03-27T20:47:44.190Z,2.20
2023-03-27T20:50:48.773Z,2.20
2023-03-27T20:53:51.360Z,1.77
2023-03-27T20:56:53.157Z,2.97
2023-03-27T20:59:54.946Z,1.38
2023-03-27T21:02:57.070Z,2.22
2023-03-27T21:06:03.759Z,2.33
2023-03-27T21:09:05.934Z,2.00
2023-03-27T21:12:07.731Z,2.17
2023-03-27T21:15:10.690Z,2.45
2023-03-27T21:18:12.401Z,2.28
2023-03-27T21:21:15.514Z,1.75
2023-03-27T21:24:17.525Z,1.83
2023-03-27T21:27:19.228Z,2.35
2023-03-27T21:30:20.998Z,1.85
2023-03-27T21:33:22.753Z,1.67
2023-03-27T21:36:28.795Z,1.60
2023-03-27T21:39:31.379Z,2.20
2023-03-27T21:42:33.452Z,1.80
2023-03-27T21:45:35.944Z,1.77
2023-03-27T21:48:37.702Z,2.25
2023-03-27T21:51:41.039Z,1.98
2023-03-27T21:54:50.061Z,1.90
2023-03-27T21:58:01.994Z,2.03
2023-03-27T22:01:04.254Z,2.30
2023-03-27T22:04:06.085Z,1.90
2023-03-27T22:07:09.215Z,1.92
2023-03-27T22:10:11.648Z,1.77
2023-03-27T22:13:13.652Z,1.63
2023-03-27T22:16:17.453Z,1.80
2023-03-27T22:19:19.222Z,1.45
2023-03-27T22:22:22.598Z,1.48
2023-03-27T22:25:24.977Z,1.83
2023-03-27T22:28:26.686Z,1.75
2023-03-27T22:31:28.550Z,1.90
2023-03-27T22:34:30.597Z,1.70
2023-03-27T22:37:36.598Z,2.42
2023-03-27T22:40:38.361Z,2.47
2023-03-27T22:43:40.698Z,1.83
2023-03-27T22:46:42.452Z,1.90
2023-03-27T22:49:44.163Z,1.67
2023-03-27T22:52:47.528Z,2.22
2023-03-27T22:55:49.651Z,2.00
2023-03-27T22:58:51.339Z,2.20
2023-03-27T23:01:53.995Z,2.58
2023-03-27T23:04:56.280Z,1.38
2023-03-27T23:07:59.356Z,1.65
2023-03-27T23:11:02.840Z,1.92
2023-03-27T23:14:04.911Z,2.25
2023-03-27T23:17:06.761Z,1.35
2023-03-27T23:20:09.039Z,1.83
2023-03-27T23:23:12.480Z,1.27
2023-03-27T23:26:14.660Z,1.95
2023-03-27T23:29:16.375Z,1.00
2023-03-27T23:32:18.048Z,1.38
2023-03-27T23:35:19.723Z,1.70
2023-03-27T23:38:22.763Z,2.08
2023-03-27T23:41:24.504Z,1.92
2023-03-27T23:44:26.448Z,1.95
2023-03-27T23:47:28.157Z,2.13
2023-03-27T23:50:29.860Z,1.90
2023-03-27T23:53:33.614Z,1.92
2023-03-27T23:56:35.321Z,1.92
2023-03-27T23:59:37.957Z,1.00
